createdAt,value
2017-09-04T06:27:23.332Z,736.61
2017-09-04T06:28:23.313Z,736.56
2017-09-04T06:29:23.296Z,736.69
2017-09-04T06:30:23.276Z,736.65
2017-09-04T06:31:23.258Z,736.63
2017-09-04T06:32:23.240Z,736.68
2017-09-04T06:33:23.223Z,736.69
2017-09-04T06:34:23.208Z,736.80
2017-09-04T06:35:23.189Z,736.70
2017-09-04T06:36:23.170Z,736.62
2017-09-04T06:37:23.154Z,736.73
2017-09-04T06:38:23.139Z,736.74
2017-09-04T06:39:23.120Z,736.70
2017-09-04T06:40:23.102Z,736.58
2017-09-04T06:41:23.085Z,736.65
2017-09-04T06:42:23.071Z,736.77
2017-09-04T06:43:23.052Z,736.87
2017-09-04T06:44:23.033Z,736.77
2017-09-04T06:45:23.019Z,736.74
2017-09-04T06:46:23.000Z,736.81
2017-09-04T06:47:23.036Z,736.83
2017-09-04T06:48:22.968Z,736.84
2017-09-04T06:49:22.949Z,736.84
2017-09-04T06:50:22.934Z,736.84
2017-09-04T06:51:22.916Z,736.82
2017-09-04T06:52:22.900Z,736.85
2017-09-04T06:53:22.898Z,736.83
2017-09-04T06:54:22.866Z,736.92
2017-09-04T06:55:22.848Z,736.88
2017-09-04T06:56:22.830Z,736.79
2017-09-04T06:57:22.815Z,736.80
2017-09-04T06:58:22.799Z,736.75
2017-09-04T06:59:22.782Z,736.90
2017-09-04T07:00:22.762Z,736.95
2017-09-04T07:01:22.746Z,736.93
2017-09-04T07:02:22.729Z,736.94
2017-09-04T07:03:22.712Z,736.97
2017-09-04T07:04:22.697Z,736.97
2017-09-04T07:05:22.678Z,736.98
2017-09-04T07:06:22.665Z,737.01
2017-09-04T07:07:22.649Z,736.98
2017-09-04T07:08:22.628Z,736.87
2017-09-04T07:09:22.614Z,736.98
2017-09-04T07:10:22.598Z,736.97
2017-09-04T07:11:22.582Z,736.91
2017-09-04T07:12:22.565Z,737.08
2017-09-04T07:13:22.546Z,737.07
2017-09-04T07:14:22.579Z,737.12
2017-09-04T07:15:22.515Z,737.08
2017-09-04T07:16:22.496Z,737.10
2017-09-04T07:17:22.482Z,737.08
2017-09-04T07:18:22.466Z,737.14
2017-09-04T07:19:22.449Z,737.10
2017-09-04T07:20:22.431Z,737.11
2017-09-04T07:21:22.412Z,737.12
2017-09-04T07:22:22.396Z,737.13
2017-09-04T07:23:22.382Z,737.15
2017-09-04T07:24:22.363Z,737.15
2017-09-04T07:25:22.349Z,737.07
2017-09-04T07:26:22.378Z,737.15
2017-09-04T07:27:22.316Z,737.18
2017-09-04T07:28:22.297Z,737.09
2017-09-04T07:29:22.283Z,737.17
2017-09-04T07:30:22.267Z,737.16
2017-09-04T07:31:22.253Z,737.23
2017-09-04T07:32:22.230Z,737.29
2017-09-04T07:33:22.214Z,737.26
2017-09-04T07:34:22.197Z,737.22
2017-09-04T07:35:22.183Z,737.23
2017-09-04T07:36:22.171Z,737.26
2017-09-04T07:37:22.149Z,737.17
2017-09-04T07:38:22.131Z,737.25
2017-09-04T07:39:22.118Z,737.29
2017-09-04T07:40:22.098Z,737.37
2017-09-04T07:41:22.084Z,737.31
2017-09-04T07:42:22.068Z,737.27
2017-09-04T07:43:22.049Z,737.27
2017-09-04T07:44:22.033Z,737.33
2017-09-04T07:45:22.018Z,737.43
2017-09-04T07:46:22.001Z,737.37
2017-09-04T07:47:21.985Z,737.36
2017-09-04T07:48:21.966Z,737.42
2017-09-04T07:49:21.948Z,737.44
2017-09-04T07:50:21.933Z,737.44
2017-09-04T07:51:21.917Z,737.40
2017-09-04T07:52:21.902Z,737.47
2017-09-04T07:53:21.884Z,737.36
2017-09-04T07:54:21.869Z,737.49
2017-09-04T07:55:21.852Z,737.49
2017-09-04T07:56:21.838Z,737.48
2017-09-04T07:57:21.822Z,737.47
2017-09-04T07:58:21.807Z,737.54
2017-09-04T07:59:21.790Z,737.52
2017-09-04T08:00:21.773Z,737.54
2017-09-04T08:01:21.760Z,737.47
2017-09-04T08:02:21.743Z,737.49
2017-09-04T08:03:21.730Z,737.50
2017-09-04T08:04:21.714Z,737.48
2017-09-04T08:05:21.698Z,737.54
2017-09-04T08:06:21.682Z,737.57
2017-09-04T08:07:21.668Z,737.63
2017-09-04T08:08:21.651Z,737.53
2017-09-04T08:09:21.634Z,737.61
2017-09-04T08:10:21.623Z,737.48
2017-09-04T08:11:21.605Z,737.60
2017-09-04T08:12:21.588Z,737.57
2017-09-04T08:13:21.573Z,737.53
2017-09-04T08:14:21.557Z,737.56
2017-09-04T08:15:21.539Z,737.60
2017-09-04T08:16:21.525Z,737.59
2017-09-04T08:17:21.510Z,737.59
2017-09-04T08:18:21.492Z,737.60
2017-09-04T08:19:21.479Z,737.55
2017-09-04T08:20:21.463Z,737.66
2017-09-04T08:21:21.445Z,737.56
2017-09-04T08:22:21.432Z,737.67
2017-09-04T08:23:21.417Z,737.66
2017-09-04T08:24:21.398Z,737.57
2017-09-04T08:25:21.382Z,737.55
2017-09-04T08:26:21.370Z,737.68
2017-09-04T08:27:21.353Z,737.62
2017-09-04T08:28:21.339Z,737.66
2017-09-04T08:29:21.322Z,737.62
2017-09-04T08:30:21.308Z,737.58
2017-09-04T08:31:21.294Z,737.55
2017-09-04T08:32:21.278Z,737.53
2017-09-04T08:33:21.265Z,737.70
2017-09-04T08:34:21.249Z,737.72
2017-09-04T08:35:21.235Z,737.67
2017-09-04T08:36:21.218Z,737.74
2017-09-04T08:37:21.207Z,737.69
2017-09-04T08:38:21.190Z,737.67
2017-09-04T08:39:21.177Z,737.72
2017-09-04T08:40:21.162Z,737.70
2017-09-04T08:41:21.150Z,737.61
2017-09-04T08:42:21.131Z,737.82
2017-09-04T08:43:21.118Z,737.59
2017-09-04T08:44:21.103Z,737.67
2017-09-04T08:45:21.088Z,737.71
2017-09-04T08:46:21.070Z,737.69
2017-09-04T08:47:21.057Z,737.73
2017-09-04T08:48:21.042Z,737.75
2017-09-04T08:49:21.026Z,737.76
2017-09-04T08:50:21.011Z,737.80
2017-09-04T08:51:20.997Z,737.72
2017-09-04T08:52:20.981Z,737.75
2017-09-04T08:53:20.970Z,737.73
2017-09-04T08:54:20.953Z,737.77
2017-09-04T08:55:20.942Z,737.74
2017-09-04T08:56:20.926Z,737.82
2017-09-04T08:57:20.913Z,737.77
2017-09-04T08:58:20.899Z,737.87
2017-09-04T08:59:20.883Z,737.90
2017-09-04T09:00:20.866Z,737.86
2017-09-04T09:01:20.857Z,737.84
2017-09-04T09:02:20.844Z,737.83
2017-09-04T09:03:20.824Z,737.84
2017-09-04T09:04:20.810Z,737.87
2017-09-04T09:05:20.797Z,737.83
2017-09-04T09:06:20.782Z,737.84
2017-09-04T09:07:20.771Z,737.94
2017-09-04T09:08:20.758Z,737.90
2017-09-04T09:09:20.742Z,737.85
2017-09-04T09:10:20.738Z,737.86
2017-09-04T09:11:20.719Z,737.87
2017-09-04T09:12:20.708Z,737.88
2017-09-04T09:13:20.690Z,737.86
2017-09-04T09:14:20.677Z,737.90
2017-09-04T09:15:20.665Z,737.94
2017-09-04T09:16:20.651Z,737.94
2017-09-04T09:17:20.639Z,737.87
2017-09-04T09:18:20.626Z,737.94
2017-09-04T09:19:20.612Z,738.01
2017-09-04T09:20:20.600Z,738.00
2017-09-04T09:21:20.585Z,737.93
2017-09-04T09:22:20.573Z,738.01
2017-09-04T09:23:20.561Z,738.05
2017-09-04T09:24:20.553Z,738.02
2017-09-04T09:25:20.535Z,738.07
2017-09-04T09:26:20.525Z,738.05
2017-09-04T09:27:20.513Z,738.07
2017-09-04T09:28:20.502Z,738.08
2017-09-04T09:29:20.488Z,738.11
2017-09-04T09:30:20.476Z,738.09
2017-09-04T09:31:20.466Z,738.13
2017-09-04T09:32:20.452Z,738.12
2017-09-04T09:33:20.439Z,738.18
2017-09-04T09:34:20.429Z,738.18
2017-09-04T09:35:20.418Z,738.22
2017-09-04T09:36:20.403Z,738.28
2017-09-04T09:37:20.396Z,738.15
2017-09-04T09:38:20.384Z,738.18
2017-09-04T09:39:20.368Z,738.22
2017-09-04T09:40:20.359Z,738.31
2017-09-04T09:41:20.349Z,738.25
2017-09-04T09:42:20.335Z,738.27
2017-09-04T09:43:20.326Z,738.29
2017-09-04T09:44:20.312Z,738.32
2017-09-04T09:45:20.301Z,738.34
2017-09-04T09:46:20.288Z,738.25
2017-09-04T09:47:20.275Z,738.25
2017-09-04T09:48:20.265Z,738.38
2017-09-04T09:49:20.250Z,738.37
2017-09-04T09:50:20.238Z,738.28
2017-09-04T09:51:20.229Z,738.39
2017-09-04T09:52:20.213Z,738.41
2017-09-04T09:53:20.201Z,738.36
2017-09-04T09:54:20.189Z,738.40
2017-09-04T09:55:20.176Z,738.36
2017-09-04T09:56:20.166Z,738.45
2017-09-04T09:57:20.151Z,738.48
2017-09-04T09:58:20.138Z,738.46
2017-09-04T09:59:20.128Z,738.45
2017-09-04T10:00:20.114Z,738.49
2017-09-04T10:01:20.103Z,738.42
2017-09-04T10:02:20.090Z,738.48
2017-09-04T10:03:20.081Z,738.45
2017-09-04T10:04:20.065Z,738.50
2017-09-04T10:05:20.054Z,738.52
2017-09-04T10:06:20.046Z,738.50
2017-09-04T10:07:20.033Z,738.51
2017-09-04T10:08:20.018Z,738.54
2017-09-04T10:09:20.008Z,738.58
2017-09-04T10:10:19.998Z,738.61
2017-09-04T10:11:19.983Z,738.62
2017-09-04T10:12:19.973Z,738.57
2017-09-04T10:13:19.954Z,738.54
2017-09-04T10:14:19.948Z,738.56
2017-09-04T10:15:19.933Z,738.56
2017-09-04T10:16:19.919Z,738.70
2017-09-04T10:17:19.907Z,738.70
2017-09-04T10:18:19.894Z,738.68
2017-09-04T10:19:19.885Z,738.67
2017-09-04T10:20:19.872Z,738.75
2017-09-04T10:21:19.857Z,738.72
2017-09-04T10:22:19.844Z,738.75
2017-09-04T10:23:19.830Z,738.69
2017-09-04T10:24:19.815Z,738.67
2017-09-04T10:25:19.805Z,738.70
2017-09-04T10:26:19.790Z,738.65
2017-09-04T10:27:19.776Z,738.69
2017-09-04T10:28:19.764Z,738.63
2017-09-04T10:29:19.750Z,738.89
2017-09-04T10:30:19.741Z,738.69
2017-09-04T10:31:19.724Z,738.64
2017-09-04T10:32:19.712Z,738.69
2017-09-04T10:33:19.698Z,738.76
2017-09-04T10:34:19.686Z,738.74
2017-09-04T10:35:19.673Z,738.81
2017-09-04T10:36:19.656Z,738.87
2017-09-04T10:37:19.642Z,738.82
2017-09-04T10:38:19.630Z,738.92
2017-09-04T10:39:19.640Z,738.91
2017-09-04T10:40:19.601Z,738.91
2017-09-04T10:41:19.588Z,738.94
2017-09-04T10:42:19.577Z,738.79
2017-09-04T10:43:19.564Z,738.95
2017-09-04T10:44:19.547Z,738.99
2017-09-04T10:45:19.534Z,738.94
2017-09-04T10:46:19.524Z,738.93
2017-09-04T10:47:19.511Z,738.97
2017-09-04T10:48:19.495Z,738.90
2017-09-04T10:49:19.491Z,738.95
2017-09-04T10:50:19.471Z,738.88
2017-09-04T10:51:19.460Z,738.94
2017-09-04T10:52:19.452Z,738.96
2017-09-04T10:53:19.437Z,738.92
2017-09-04T10:54:19.423Z,738.97
2017-09-04T10:55:19.413Z,739.03
2017-09-04T10:56:19.398Z,739.02
2017-09-04T10:57:19.391Z,739.04
2017-09-04T10:58:19.375Z,739.08
2017-09-04T10:59:19.365Z,739.06
2017-09-04T11:00:19.351Z,739.10
2017-09-04T11:01:19.339Z,739.10
2017-09-04T11:02:19.328Z,739.09
2017-09-04T11:03:19.319Z,739.07
2017-09-04T11:04:19.306Z,738.96
2017-09-04T11:05:19.295Z,739.10
2017-09-04T11:06:19.283Z,738.96
2017-09-04T11:07:19.272Z,738.95
2017-09-04T11:08:19.265Z,739.12
2017-09-04T11:09:19.245Z,739.17
2017-09-04T11:10:19.235Z,739.10
2017-09-04T11:11:19.222Z,739.17
2017-09-04T11:12:19.210Z,739.18
2017-09-04T11:13:19.198Z,739.10
2017-09-04T11:14:19.187Z,739.11
2017-09-04T11:15:19.178Z,738.98
2017-09-04T11:16:19.163Z,739.01
2017-09-04T11:17:19.149Z,738.97
2017-09-04T11:18:19.138Z,739.15
2017-09-04T11:19:19.126Z,739.15
2017-09-04T11:20:19.112Z,738.96
2017-09-04T11:21:19.101Z,739.19
2017-09-04T11:22:19.088Z,739.35
2017-09-04T11:23:19.076Z,739.35
2017-09-04T11:24:19.060Z,739.20
2017-09-04T11:25:19.048Z,739.11
2017-09-04T11:26:19.036Z,739.25
2017-09-04T11:27:19.024Z,739.37
2017-09-04T11:28:19.011Z,739.08
2017-09-04T11:29:18.999Z,739.32
2017-09-04T11:30:18.989Z,739.37
2017-09-04T11:31:18.978Z,739.40
2017-09-04T11:32:18.965Z,739.38
2017-09-04T11:33:18.951Z,739.37
2017-09-04T11:34:18.939Z,739.32
2017-09-04T11:35:18.928Z,739.13
2017-09-04T11:36:18.915Z,739.26
2017-09-04T11:37:18.914Z,739.30
2017-09-04T11:38:18.892Z,739.39
2017-09-04T11:39:18.885Z,739.44
2017-09-04T11:40:18.877Z,739.26
2017-09-04T11:41:18.863Z,739.27
2017-09-04T11:42:18.858Z,739.34
2017-09-04T11:43:18.847Z,739.38
2017-09-04T11:44:18.833Z,739.26
2017-09-04T11:45:18.820Z,739.24
2017-09-04T11:46:18.795Z,739.27
2017-09-04T11:47:18.812Z,739.37
2017-09-04T11:48:18.771Z,739.47
2017-09-04T11:49:18.757Z,739.37
2017-09-04T11:50:18.743Z,739.16
2017-09-04T11:51:18.732Z,739.26
2017-09-04T11:52:18.715Z,739.27
2017-09-04T11:53:18.703Z,739.29
2017-09-04T11:54:18.692Z,739.26
2017-09-04T11:55:18.676Z,739.29
2017-09-04T11:56:18.666Z,739.33
2017-09-04T11:57:18.648Z,739.36
2017-09-04T11:58:18.635Z,739.34
2017-09-04T11:59:18.622Z,739.38
2017-09-04T12:00:18.607Z,739.41
2017-09-04T12:01:18.597Z,739.37
2017-09-04T12:02:18.582Z,739.39
2017-09-04T12:03:18.573Z,739.34
2017-09-04T12:04:18.558Z,739.41
2017-09-04T12:05:18.542Z,739.51
2017-09-04T12:06:18.533Z,739.49
2017-09-04T12:07:18.517Z,739.52
2017-09-04T12:08:18.515Z,739.38
2017-09-04T12:09:18.492Z,739.45
2017-09-04T12:10:18.480Z,739.48
2017-09-04T12:11:18.471Z,739.51
2017-09-04T12:12:18.455Z,739.42
2017-09-04T12:13:18.444Z,739.40
2017-09-04T12:14:18.430Z,739.37
2017-09-04T12:15:18.417Z,739.53
2017-09-04T12:16:18.407Z,739.35
2017-09-04T12:17:18.392Z,739.36
2017-09-04T12:18:18.382Z,739.34
2017-09-04T12:19:18.373Z,739.26
2017-09-04T12:20:18.353Z,739.40
2017-09-04T12:21:18.343Z,739.44
2017-09-04T12:22:18.327Z,739.35
2017-09-04T12:23:18.316Z,739.43
2017-09-04T12:24:18.299Z,739.54
2017-09-04T12:25:18.287Z,739.45
2017-09-04T12:26:18.273Z,739.51
2017-09-04T12:27:18.262Z,739.56
2017-09-04T12:28:18.245Z,739.55
2017-09-04T12:29:18.232Z,739.52
2017-09-04T12:30:18.218Z,739.46
2017-09-04T12:31:18.207Z,739.46
2017-09-04T12:32:18.193Z,739.42
2017-09-04T12:33:18.177Z,739.32
2017-09-04T12:34:18.165Z,739.35
2017-09-04T12:35:18.154Z,739.50
2017-09-04T12:36:18.136Z,739.42
2017-09-04T12:37:18.123Z,739.41
2017-09-04T12:38:18.113Z,739.64
2017-09-04T12:39:18.099Z,739.40
2017-09-04T12:40:18.085Z,739.28
2017-09-04T12:41:18.078Z,739.28
2017-09-04T12:42:18.059Z,739.34
2017-09-04T12:43:18.046Z,739.35
2017-09-04T12:44:18.029Z,739.61
2017-09-04T12:45:18.019Z,739.65
2017-09-04T12:46:18.003Z,739.63
2017-09-04T12:47:17.993Z,739.51
2017-09-04T12:48:17.976Z,739.60
2017-09-04T12:49:17.966Z,739.59
2017-09-04T12:50:17.952Z,739.52
2017-09-04T12:51:17.939Z,739.52
2017-09-04T12:52:17.923Z,739.58
2017-09-04T12:53:17.910Z,739.46
2017-09-04T12:54:17.899Z,739.35
2017-09-04T12:55:17.884Z,739.34
2017-09-04T12:56:17.870Z,739.41
2017-09-04T12:57:17.860Z,739.38
2017-09-04T12:58:17.852Z,739.37
2017-09-04T12:59:17.837Z,739.51
2017-09-04T13:00:17.832Z,739.52
2017-09-04T13:01:17.823Z,739.53
2017-09-04T13:02:17.817Z,739.53
2017-09-04T13:03:17.774Z,739.48
2017-09-04T13:04:17.760Z,739.51
2017-09-04T13:05:17.749Z,739.48
2017-09-04T13:06:17.733Z,739.46
2017-09-04T13:07:17.719Z,739.45
2017-09-04T13:08:17.709Z,739.38
2017-09-04T13:09:17.694Z,739.38
2017-09-04T13:10:17.680Z,739.48
2017-09-04T13:11:17.666Z,739.51
2017-09-04T13:12:17.650Z,739.48
2017-09-04T13:13:17.639Z,739.48
2017-09-04T13:14:17.630Z,739.63
2017-09-04T13:15:17.611Z,739.47
2017-09-04T13:16:17.597Z,739.37
2017-09-04T13:17:17.582Z,739.42
2017-09-04T13:18:17.569Z,739.30
2017-09-04T13:19:17.554Z,739.59
2017-09-04T13:20:17.536Z,739.50
2017-09-04T13:21:17.522Z,739.47
2017-09-04T13:22:17.510Z,739.59
2017-09-04T13:23:17.494Z,739.60
2017-09-04T13:24:17.477Z,739.53
2017-09-04T13:25:17.464Z,739.47
2017-09-04T13:26:17.448Z,739.57
2017-09-04T13:27:17.437Z,739.47
2017-09-04T13:28:17.418Z,739.46
2017-09-04T13:29:17.405Z,739.50
2017-09-04T13:30:17.390Z,739.55
2017-09-04T13:31:17.372Z,739.51
2017-09-04T13:32:17.359Z,739.53
2017-09-04T13:33:17.344Z,739.47
2017-09-04T13:34:17.330Z,739.55
2017-09-04T13:35:17.315Z,739.61
2017-09-04T13:36:17.299Z,739.48
2017-09-04T13:37:17.285Z,739.52
2017-09-04T13:38:17.269Z,739.49
2017-09-04T13:39:17.253Z,739.52
2017-09-04T13:40:17.239Z,739.54
2017-09-04T13:41:17.223Z,739.51
2017-09-04T13:42:17.208Z,739.54
2017-09-04T13:43:17.201Z,739.56
2017-09-04T13:44:17.180Z,739.55
2017-09-04T13:45:17.164Z,739.40
2017-09-04T13:46:17.148Z,739.54
2017-09-04T13:47:17.135Z,739.61
2017-09-04T13:48:17.117Z,739.58
2017-09-04T13:49:17.102Z,739.55
2017-09-04T13:50:17.092Z,739.67
2017-09-04T13:51:17.073Z,739.63
2017-09-04T13:52:17.057Z,739.69
2017-09-04T13:53:17.043Z,739.68
2017-09-04T13:54:17.036Z,739.63
2017-09-04T13:55:17.017Z,739.51
2017-09-04T13:56:17.001Z,739.51
2017-09-04T13:57:16.985Z,739.53
2017-09-04T13:58:16.973Z,739.53
2017-09-04T13:59:16.957Z,739.55
2017-09-04T14:00:16.942Z,739.68
2017-09-04T14:01:16.925Z,739.66
2017-09-04T14:02:16.910Z,739.63
2017-09-04T14:03:16.896Z,739.54
2017-09-04T14:04:16.882Z,739.61
2017-09-04T14:05:16.867Z,739.59
2017-09-04T14:06:16.851Z,739.43
2017-09-04T14:07:16.837Z,739.55
2017-09-04T14:08:16.817Z,739.50
2017-09-04T14:09:16.805Z,739.52
2017-09-04T14:10:16.790Z,739.54
2017-09-04T14:11:16.775Z,739.62
2017-09-04T14:12:16.759Z,739.54
2017-09-04T14:13:16.741Z,739.69
2017-09-04T14:14:16.726Z,739.65
2017-09-04T14:15:16.711Z,739.69
2017-09-04T14:16:16.695Z,739.79
2017-09-04T14:17:16.679Z,739.74
2017-09-04T14:18:16.664Z,739.64
2017-09-04T14:19:16.648Z,739.73
2017-09-04T14:20:16.632Z,739.60
2017-09-04T14:21:16.619Z,739.72
2017-09-04T14:22:16.607Z,739.69
2017-09-04T14:23:16.587Z,739.70
2017-09-04T14:24:16.574Z,739.65
2017-09-04T14:25:16.557Z,739.57
2017-09-04T14:26:16.542Z,739.63
2017-09-04T14:27:16.527Z,739.65
2017-09-04T14:28:16.509Z,739.74
2017-09-04T14:29:16.494Z,739.70
2017-09-04T14:30:16.479Z,739.65
2017-09-04T14:31:16.465Z,739.72
2017-09-04T14:32:16.446Z,739.60
2017-09-04T14:33:16.431Z,739.71
2017-09-04T14:34:16.418Z,739.72
2017-09-04T14:35:16.402Z,739.70
2017-09-04T14:36:16.382Z,739.71
2017-09-04T14:37:16.367Z,739.65
2017-09-04T14:38:16.352Z,739.64
2017-09-04T14:39:16.335Z,739.67
2017-09-04T14:40:16.321Z,739.59
2017-09-04T14:41:16.302Z,739.54
2017-09-04T14:42:16.289Z,739.68
2017-09-04T14:43:16.270Z,739.75
2017-09-04T14:44:16.253Z,739.69
2017-09-04T14:45:16.238Z,739.66
2017-09-04T14:46:16.222Z,739.67
2017-09-04T14:47:16.209Z,739.67
2017-09-04T14:48:16.189Z,739.72
2017-09-04T14:49:16.176Z,739.68
2017-09-04T14:50:16.163Z,739.74
2017-09-04T14:51:16.141Z,739.70
2017-09-04T14:52:16.125Z,739.74
2017-09-04T14:53:16.110Z,739.78
2017-09-04T14:54:16.092Z,739.79
2017-09-04T14:55:16.079Z,739.78
2017-09-04T14:56:16.059Z,739.61
2017-09-04T14:57:16.047Z,739.77
2017-09-04T14:58:16.030Z,739.68
2017-09-04T14:59:16.014Z,739.82
2017-09-04T15:00:15.997Z,739.80
2017-09-04T15:01:15.980Z,739.71
2017-09-04T15:02:15.963Z,739.78
2017-09-04T15:03:15.946Z,739.85
2017-09-04T15:04:15.932Z,739.83
2017-09-04T15:05:15.913Z,739.84
2017-09-04T15:06:15.901Z,739.85
2017-09-04T15:07:15.881Z,739.87
2017-09-04T15:08:15.864Z,739.82
2017-09-04T15:09:15.848Z,739.62
2017-09-04T15:10:15.834Z,739.68
2017-09-04T15:11:15.819Z,739.77
2017-09-04T15:12:15.801Z,739.75
2017-09-04T15:13:15.785Z,739.77
2017-09-04T15:14:15.770Z,739.76
2017-09-04T15:15:15.752Z,739.71
2017-09-04T15:16:15.737Z,739.91
2017-09-04T15:17:15.718Z,739.80
2017-09-04T15:18:15.704Z,739.83
2017-09-04T15:19:15.687Z,739.87
2017-09-04T15:20:15.669Z,739.96
2017-09-04T15:21:15.655Z,739.91
2017-09-04T15:22:15.637Z,739.91
2017-09-04T15:23:15.623Z,739.90
2017-09-04T15:24:15.610Z,739.91
2017-09-04T15:25:15.589Z,739.90
2017-09-04T15:26:15.573Z,739.91
2017-09-04T15:27:15.557Z,739.97
2017-09-04T15:28:15.542Z,739.95
2017-09-04T15:29:15.522Z,739.85
2017-09-04T15:30:15.506Z,739.91
2017-09-04T15:31:15.493Z,739.84
2017-09-04T15:32:15.476Z,739.96
2017-09-04T15:33:15.457Z,739.79
2017-09-04T15:34:15.443Z,739.73
2017-09-04T15:35:15.427Z,739.81
2017-09-04T15:36:15.410Z,739.68
2017-09-04T15:37:15.392Z,739.83
2017-09-04T15:38:15.378Z,739.80
2017-09-04T15:39:15.358Z,739.91
2017-09-04T15:40:15.342Z,739.87
2017-09-04T15:41:15.325Z,739.80
2017-09-04T15:42:15.311Z,740.08
2017-09-04T15:43:15.291Z,740.01
2017-09-04T15:44:15.274Z,739.94
2017-09-04T15:45:15.260Z,739.95
2017-09-04T15:46:15.242Z,740.02
2017-09-04T15:47:15.229Z,739.98
2017-09-04T15:48:15.210Z,739.96
2017-09-04T15:49:15.195Z,740.15
2017-09-04T15:50:15.175Z,740.01
2017-09-04T15:51:15.162Z,739.84
2017-09-04T15:52:15.144Z,739.94
2017-09-04T15:53:15.126Z,739.98
2017-09-04T15:54:15.109Z,740.02
2017-09-04T15:55:15.091Z,740.02
2017-09-04T15:56:15.077Z,740.03
2017-09-04T15:57:15.061Z,740.05
2017-09-04T15:58:15.048Z,739.99
2017-09-04T15:59:15.027Z,740.02
2017-09-04T16:00:15.007Z,739.96
2017-09-04T16:01:14.991Z,740.06
2017-09-04T16:02:14.976Z,740.04
2017-09-04T16:03:14.964Z,740.13
2017-09-04T16:04:14.940Z,740.07
2017-09-04T16:05:14.923Z,740.20
2017-09-04T16:06:14.907Z,740.17
2017-09-04T16:07:14.890Z,740.11
2017-09-04T16:08:14.872Z,740.07
2017-09-04T16:09:14.859Z,740.01
2017-09-04T16:10:14.840Z,740.06
2017-09-04T16:11:14.825Z,740.04
2017-09-04T16:12:14.807Z,740.07
2017-09-04T16:13:14.788Z,740.06
2017-09-04T16:14:14.775Z,740.11
2017-09-04T16:15:14.755Z,740.11
2017-09-04T16:16:14.739Z,740.09
2017-09-04T16:17:14.723Z,740.02
2017-09-04T16:18:14.707Z,740.07
2017-09-04T16:19:14.690Z,740.18
2017-09-04T16:20:14.670Z,740.10
2017-09-04T16:21:14.655Z,740.19
2017-09-04T16:22:14.639Z,740.07
2017-09-04T16:23:14.621Z,740.10
2017-09-04T16:24:14.602Z,740.02
2017-09-04T16:25:14.588Z,740.05
2017-09-04T16:26:14.571Z,740.05
2017-09-04T16:27:14.554Z,740.11
2017-09-04T16:28:14.538Z,740.10
2017-09-04T16:29:14.519Z,740.05
2017-09-04T16:30:14.507Z,740.10
2017-09-04T16:31:14.488Z,740.17
2017-09-04T16:32:14.472Z,740.08
2017-09-04T16:33:14.454Z,739.99
2017-09-04T16:34:14.437Z,740.12
2017-09-04T16:35:14.423Z,740.05
2017-09-04T16:36:14.406Z,740.12
2017-09-04T16:37:14.389Z,740.10
2017-09-04T16:38:14.371Z,740.06
2017-09-04T16:39:14.358Z,740.11
2017-09-04T16:40:14.337Z,740.09
2017-09-04T16:41:14.324Z,740.13
2017-09-04T16:42:14.307Z,740.14
2017-09-04T16:43:14.290Z,740.23
2017-09-04T16:44:14.271Z,740.25
2017-09-04T16:45:14.254Z,740.24
2017-09-04T16:46:14.237Z,740.27
2017-09-04T16:47:14.221Z,740.20
2017-09-04T16:48:14.205Z,740.29
2017-09-04T16:49:14.185Z,740.12
2017-09-04T16:50:14.169Z,740.23
2017-09-04T16:51:14.155Z,740.20
2017-09-04T16:52:14.136Z,740.20
2017-09-04T16:53:14.119Z,740.13
2017-09-04T16:54:14.139Z,740.17
2017-09-04T16:55:14.094Z,740.08
2017-09-04T16:56:14.070Z,740.12
2017-09-04T16:57:14.053Z,740.07
2017-09-04T16:58:14.034Z,740.14
2017-09-04T16:59:14.017Z,740.12
2017-09-04T17:00:14.000Z,740.19
2017-09-04T17:01:13.983Z,740.30
2017-09-04T17:02:13.968Z,740.10
2017-09-04T17:03:13.949Z,740.27
2017-09-04T17:04:13.931Z,740.11
2017-09-04T17:05:13.924Z,740.37
2017-09-04T17:06:13.900Z,739.99
2017-09-04T17:07:13.881Z,740.24
2017-09-04T17:08:13.864Z,740.29
2017-09-04T17:09:13.847Z,740.37
2017-09-04T17:10:13.830Z,740.32
2017-09-04T17:11:13.818Z,740.34
2017-09-04T17:12:13.802Z,740.28
2017-09-04T17:13:13.781Z,740.31
2017-09-04T17:14:13.762Z,740.35
2017-09-04T17:15:13.746Z,740.36
2017-09-04T17:16:13.728Z,740.31
2017-09-04T17:17:13.713Z,740.27
2017-09-04T17:18:13.701Z,740.38
2017-09-04T17:19:13.679Z,740.29
2017-09-04T17:20:13.661Z,740.23
2017-09-04T17:21:13.643Z,740.39
2017-09-04T17:22:13.628Z,740.35
2017-09-04T17:23:13.611Z,740.38
2017-09-04T17:24:13.594Z,740.29
2017-09-04T17:25:13.581Z,740.27
2017-09-04T17:26:13.585Z,740.32
2017-09-04T17:27:13.544Z,740.20
2017-09-04T17:28:13.523Z,740.34
2017-09-04T17:29:13.509Z,740.33
2017-09-04T17:30:13.490Z,740.33
2017-09-04T17:31:13.472Z,740.39
2017-09-04T17:32:13.458Z,740.30
2017-09-04T17:33:13.442Z,740.40
2017-09-04T17:34:13.424Z,740.48
2017-09-04T17:35:13.406Z,740.42
2017-09-04T17:36:13.391Z,740.49
2017-09-04T17:37:13.369Z,740.44
2017-09-04T17:38:13.356Z,740.50
2017-09-04T17:39:13.345Z,740.50
2017-09-04T17:40:13.321Z,740.45
2017-09-04T17:41:13.301Z,740.56
2017-09-04T17:42:13.287Z,740.46
2017-09-04T17:43:13.269Z,740.51
2017-09-04T17:44:13.252Z,740.41
2017-09-04T17:45:13.235Z,740.40
2017-09-04T17:46:13.219Z,740.40
2017-09-04T17:47:13.201Z,740.46
2017-09-04T17:48:13.212Z,740.51
2017-09-04T17:49:13.163Z,740.45
2017-09-04T17:50:13.148Z,740.54
2017-09-04T17:51:13.132Z,740.45
2017-09-04T17:52:13.114Z,740.47
2017-09-04T17:53:13.097Z,740.47
2017-09-04T17:54:13.080Z,740.63
2017-09-04T17:55:13.062Z,740.42
2017-09-04T17:56:13.042Z,740.56
2017-09-04T17:57:13.028Z,740.61
2017-09-04T17:58:13.009Z,740.61
2017-09-04T17:59:12.993Z,740.67
2017-09-04T18:00:12.977Z,740.60
2017-09-04T18:01:12.955Z,740.70
2017-09-04T18:02:12.939Z,740.60
2017-09-04T18:03:12.925Z,740.82
2017-09-04T18:04:12.904Z,740.60
2017-09-04T18:05:12.889Z,740.63
2017-09-04T18:06:12.871Z,740.65
2017-09-04T18:07:12.859Z,740.61
2017-09-04T18:08:12.838Z,740.62
2017-09-04T18:09:12.818Z,740.74
2017-09-04T18:10:12.800Z,740.75
2017-09-04T18:11:12.783Z,740.75
2017-09-04T18:12:12.763Z,740.82
2017-09-04T18:13:12.755Z,740.61
2017-09-04T18:14:12.732Z,740.72
2017-09-04T18:15:12.715Z,740.76
2017-09-04T18:16:12.697Z,740.73
2017-09-04T18:17:12.677Z,740.88
2017-09-04T18:18:12.660Z,740.75
2017-09-04T18:19:12.643Z,740.62
2017-09-04T18:20:12.628Z,740.62
2017-09-04T18:21:12.607Z,740.78
2017-09-04T18:22:12.592Z,740.70
2017-09-04T18:23:12.571Z,740.74
2017-09-04T18:24:12.560Z,740.72
2017-09-04T18:25:12.536Z,740.74
2017-09-04T18:26:12.517Z,740.81
2017-09-04T18:27:12.504Z,740.79
2017-09-04T18:28:12.482Z,740.74
2017-09-04T18:29:12.466Z,740.65
2017-09-04T18:30:12.449Z,740.89
2017-09-04T18:31:12.432Z,740.69
2017-09-04T18:32:12.413Z,740.82
2017-09-04T18:33:12.397Z,740.77
2017-09-04T18:34:12.378Z,740.84
2017-09-04T18:35:12.360Z,740.79
2017-09-04T18:36:12.343Z,740.73
2017-09-04T18:37:12.322Z,740.91
2017-09-04T18:38:12.305Z,740.81
2017-09-04T18:39:12.289Z,740.73
2017-09-04T18:40:12.272Z,740.95
2017-09-04T18:41:12.254Z,740.74
2017-09-04T18:42:12.235Z,740.87
2017-09-04T18:43:12.218Z,740.87
2017-09-04T18:44:12.201Z,740.60
2017-09-04T18:45:12.185Z,740.81
2017-09-04T18:46:12.165Z,740.84
2017-09-04T18:47:12.151Z,740.85
2017-09-04T18:48:12.129Z,740.95
2017-09-04T18:49:12.115Z,740.97
2017-09-04T18:50:12.098Z,741.04
2017-09-04T18:51:12.078Z,740.95
2017-09-04T18:52:12.062Z,741.13
2017-09-04T18:53:12.043Z,741.02
2017-09-04T18:54:12.027Z,740.97
2017-09-04T18:55:12.008Z,741.00